createdAt,value
2023-04-18T00:05:25.011Z,11.20
2023-04-18T00:07:54.736Z,10.90
2023-04-18T00:10:23.525Z,11.00
2023-04-18T00:12:58.550Z,10.90
2023-04-18T00:15:29.416Z,11.00
2023-04-18T00:17:58.029Z,11.00
2023-04-18T00:20:26.700Z,10.90
2023-04-18T00:23:01.709Z,11.00
2023-04-18T00:25:41.847Z,11.00
2023-04-18T00:28:12.623Z,11.00
2023-04-18T00:34:21.496Z,10.90
2023-04-18T00:36:53.520Z,10.80
2023-04-18T00:39:23.700Z,10.80
2023-04-18T00:41:55.831Z,10.70
2023-04-18T00:44:24.884Z,10.80
2023-04-18T00:46:54.002Z,10.70
2023-04-18T00:49:27.924Z,10.70
2023-04-18T00:52:00.738Z,10.70
2023-04-18T00:54:30.775Z,10.70
2023-04-18T00:57:00.813Z,10.60
2023-04-18T00:59:29.409Z,10.70
2023-04-18T01:02:06.214Z,10.70
2023-04-18T01:04:34.824Z,10.60
2023-04-18T01:07:03.027Z,10.60
2023-04-18T01:09:31.621Z,10.50
2023-04-18T01:12:01.421Z,10.50
2023-04-18T01:14:29.557Z,10.50
2023-04-18T01:17:10.473Z,10.50
2023-04-18T01:19:39.552Z,10.50
2023-04-18T01:22:15.615Z,10.50
2023-04-18T01:24:43.565Z,10.30
2023-04-18T01:27:16.188Z,10.40
2023-04-18T01:29:44.327Z,10.40
2023-04-18T01:32:13.231Z,10.40
2023-04-18T01:34:45.957Z,10.30
2023-04-18T01:37:18.500Z,10.30
2023-04-18T01:39:48.426Z,10.30
2023-04-18T01:42:15.680Z,10.20
2023-04-18T01:44:44.521Z,10.20
2023-04-18T01:47:15.836Z,10.20
2023-04-18T01:49:48.457Z,10.20
2023-04-18T01:52:17.653Z,10.20
2023-04-18T01:54:45.668Z,10.10
2023-04-18T01:57:16.595Z,10.10
2023-04-18T01:59:47.326Z,10.10
2023-04-18T02:02:16.774Z,10.10
2023-04-18T02:04:44.842Z,10.00
2023-04-18T02:07:14.733Z,9.90
2023-04-18T02:09:42.094Z,9.80
2023-04-18T02:12:12.696Z,9.90
2023-04-18T02:14:47.511Z,10.00
2023-04-18T02:17:14.640Z,10.00
2023-04-18T02:19:42.985Z,10.00
2023-04-18T02:22:13.004Z,9.90
2023-04-18T02:24:40.035Z,9.80
2023-04-18T02:27:11.842Z,9.80
2023-04-18T02:29:42.413Z,9.80
2023-04-18T02:32:16.641Z,9.90
2023-04-18T02:34:46.815Z,9.80
2023-04-18T02:37:17.023Z,9.80
2023-04-18T02:39:44.828Z,9.80
2023-04-18T02:42:12.164Z,9.70
2023-04-18T02:44:42.060Z,9.70
2023-04-18T02:47:09.705Z,9.60
2023-04-18T02:49:40.114Z,9.50
2023-04-18T02:52:08.941Z,9.60
2023-04-18T02:54:42.131Z,9.60
2023-04-18T02:57:14.691Z,9.50
2023-04-18T02:59:57.208Z,9.50
2023-04-18T03:02:48.167Z,9.50
2023-04-18T03:05:37.128Z,9.50
2023-04-18T03:08:13.412Z,9.50
2023-04-18T03:11:00.983Z,9.40
2023-04-18T03:13:40.111Z,9.40
2023-04-18T03:16:08.174Z,9.40
2023-04-18T03:18:37.802Z,9.30
2023-04-18T03:21:05.565Z,9.20
2023-04-18T03:23:34.347Z,9.20
2023-04-18T03:26:06.989Z,9.20
2023-04-18T03:28:37.065Z,9.20
2023-04-18T03:31:05.442Z,9.10
2023-04-18T03:33:35.480Z,9.10
2023-04-18T03:36:11.336Z,9.10
2023-04-18T03:38:42.564Z,9.10
2023-04-18T03:41:11.168Z,9.10
2023-04-18T03:43:39.469Z,9.00
2023-04-18T03:46:07.454Z,9.00
2023-04-18T03:48:37.448Z,9.10
2023-04-18T03:51:14.255Z,9.00
2023-04-18T03:53:41.449Z,9.00
2023-04-18T03:56:08.476Z,9.00
2023-04-18T03:58:49.798Z,8.90
2023-04-18T04:01:18.660Z,8.90
2023-04-18T04:03:48.814Z,8.80
2023-04-18T04:06:17.907Z,8.80
2023-04-18T04:08:45.305Z,8.80
2023-04-18T04:11:13.106Z,8.80
2023-04-18T04:13:40.171Z,8.80
2023-04-18T04:16:11.349Z,8.70
2023-04-18T04:18:40.155Z,8.80
2023-04-18T04:21:09.412Z,8.80
2023-04-18T04:23:46.930Z,8.80
2023-04-18T04:26:26.254Z,8.70
2023-04-18T04:29:03.683Z,8.70
2023-04-18T04:31:32.891Z,8.80
2023-04-18T04:34:00.834Z,8.60
2023-04-18T04:36:31.072Z,8.70
2023-04-18T04:39:00.602Z,8.60
2023-04-18T04:41:40.146Z,8.60
2023-04-18T04:44:09.716Z,8.50
2023-04-18T04:46:40.327Z,8.60
2023-04-18T04:49:14.660Z,8.60
2023-04-18T04:51:43.653Z,8.50
2023-04-18T04:54:12.628Z,8.50
2023-04-18T04:56:42.759Z,8.50
2023-04-18T04:59:32.826Z,8.50
2023-04-18T05:02:00.642Z,8.50
2023-04-18T05:05:02.249Z,8.50
2023-04-18T05:07:36.702Z,8.40
2023-04-18T05:10:04.795Z,8.40
2023-04-18T05:12:34.543Z,8.30
2023-04-18T05:15:02.082Z,8.40
2023-04-18T05:17:33.902Z,8.40
2023-04-18T05:20:01.244Z,8.40
2023-04-18T05:22:28.156Z,8.30
2023-04-18T05:24:58.226Z,8.50
2023-04-18T05:27:31.468Z,8.50
2023-04-18T05:30:00.235Z,8.60
2023-04-18T05:32:27.117Z,8.50
2023-04-18T05:34:54.027Z,8.50
2023-04-18T05:37:23.242Z,8.50
2023-04-18T05:39:51.473Z,8.40
2023-04-18T05:42:18.495Z,8.40
2023-04-18T05:44:45.696Z,8.40
2023-04-18T05:47:13.063Z,8.50
2023-04-18T05:49:45.795Z,8.50
2023-04-18T05:52:16.025Z,8.50
2023-04-18T05:54:42.882Z,8.40
2023-04-18T05:57:10.192Z,8.30
2023-04-18T05:59:38.290Z,8.40
2023-04-18T06:02:13.817Z,8.50
2023-04-18T06:04:45.291Z,8.40
2023-04-18T06:07:14.679Z,8.40
2023-04-18T06:09:42.486Z,8.40
2023-04-18T06:12:25.036Z,8.40
2023-04-18T06:14:56.623Z,8.30
2023-04-18T06:17:25.139Z,8.40
2023-04-18T06:19:53.182Z,8.40
2023-04-18T06:22:20.219Z,8.50
2023-04-18T06:24:47.186Z,8.50
2023-04-18T06:27:27.865Z,8.40
2023-04-18T06:29:57.330Z,8.50
2023-04-18T06:32:27.053Z,8.50
2023-04-18T06:34:56.675Z,8.50
2023-04-18T06:37:24.463Z,8.60
2023-04-18T06:39:53.467Z,8.70
2023-04-18T06:42:22.522Z,8.70
2023-04-18T06:44:50.149Z,8.70
2023-04-18T06:47:18.690Z,8.70
2023-04-18T06:49:45.750Z,8.70
2023-04-18T06:52:12.685Z,8.80
2023-04-18T06:54:42.020Z,8.90
2023-04-18T06:57:11.017Z,8.90
2023-04-18T06:59:40.857Z,8.90
2023-04-18T07:02:08.312Z,8.80
2023-04-18T07:04:35.826Z,8.80
2023-04-18T07:07:06.314Z,8.80
2023-04-18T07:09:34.710Z,8.80
2023-04-18T07:12:01.655Z,8.80
2023-04-18T07:14:28.619Z,8.90
2023-04-18T07:16:57.796Z,9.00
2023-04-18T07:19:26.040Z,9.10
2023-04-18T07:21:56.042Z,9.10
2023-04-18T07:24:24.215Z,9.20
2023-04-18T07:26:54.494Z,9.30
2023-04-18T07:29:23.357Z,9.30
2023-04-18T07:31:52.032Z,9.40
2023-04-18T07:34:19.541Z,9.60
2023-04-18T07:36:50.412Z,9.50
2023-04-18T07:39:18.652Z,9.60
2023-04-18T07:41:48.080Z,9.60
2023-04-18T07:44:15.552Z,9.90
2023-04-18T07:46:43.073Z,9.90
2023-04-18T07:49:11.638Z,9.90
2023-04-18T07:51:41.932Z,10.10
2023-04-18T07:54:11.454Z,10.10
2023-04-18T07:56:38.774Z,10.20
2023-04-18T07:59:07.122Z,10.30
2023-04-18T08:01:36.240Z,10.10
2023-04-18T08:04:03.705Z,9.90
2023-04-18T08:06:36.255Z,9.80
2023-04-18T08:09:07.130Z,9.90
2023-04-18T08:11:41.732Z,10.00
2023-04-18T08:14:12.783Z,10.10
2023-04-18T08:16:40.473Z,10.10
2023-04-18T08:19:07.403Z,10.30
2023-04-18T08:21:36.588Z,10.30
2023-04-18T08:24:04.761Z,10.50
2023-04-18T08:26:32.059Z,10.40
2023-04-18T08:29:02.139Z,10.60
2023-04-18T08:31:38.983Z,10.70
2023-04-18T08:34:09.710Z,10.70
2023-04-18T08:36:42.341Z,10.70
2023-04-18T08:39:11.617Z,10.80
2023-04-18T08:41:43.099Z,11.00
2023-04-18T08:44:12.435Z,11.20
2023-04-18T08:47:08.235Z,11.30
2023-04-18T08:49:38.768Z,11.20
2023-04-18T08:52:14.434Z,11.30
2023-04-18T08:54:42.813Z,11.30
2023-04-18T08:57:14.838Z,11.30
2023-04-18T08:59:47.105Z,11.30
2023-04-18T09:02:15.739Z,11.30
2023-04-18T09:04:56.726Z,11.50
2023-04-18T09:07:29.885Z,11.70
2023-04-18T09:10:00.334Z,11.70
2023-04-18T09:12:30.327Z,11.80
2023-04-18T09:15:16.037Z,11.90
2023-04-18T09:17:56.270Z,11.80
2023-04-18T09:20:30.626Z,11.90
2023-04-18T09:23:00.697Z,11.90
2023-04-18T09:25:45.457Z,12.10
2023-04-18T09:28:31.857Z,12.10
2023-04-18T09:31:07.517Z,12.10
2023-04-18T09:33:39.007Z,12.10
2023-04-18T09:36:20.957Z,12.20
2023-04-18T09:38:49.323Z,12.30
2023-04-18T09:41:21.182Z,12.40
2023-04-18T09:43:49.777Z,12.70
2023-04-18T09:46:17.893Z,12.80
2023-04-18T09:48:44.931Z,12.80
2023-04-18T09:51:15.802Z,12.90
2023-04-18T09:53:47.568Z,12.90
2023-04-18T09:56:28.051Z,13.00
2023-04-18T09:59:08.786Z,13.00
2023-04-18T10:01:36.595Z,13.10
2023-04-18T10:04:07.860Z,13.10
2023-04-18T10:06:39.666Z,13.20
2023-04-18T10:09:09.888Z,13.40
2023-04-18T10:11:37.058Z,13.40
2023-04-18T10:14:09.807Z,13.60
2023-04-18T10:16:39.565Z,13.20
2023-04-18T10:19:27.112Z,13.30
2023-04-18T10:21:55.842Z,13.50
2023-04-18T10:24:56.123Z,13.50
2023-04-18T10:27:48.207Z,13.70
2023-04-18T10:30:17.358Z,13.70
2023-04-18T10:32:46.578Z,13.80
2023-04-18T10:35:13.592Z,13.80
2023-04-18T10:37:50.963Z,13.90
2023-04-18T10:40:34.713Z,14.10
2023-04-18T10:43:01.978Z,14.20
2023-04-18T10:45:32.561Z,14.10
2023-04-18T10:48:31.539Z,14.00
2023-04-18T10:51:20.899Z,14.00
2023-04-18T10:53:59.647Z,14.00
2023-04-18T10:56:39.709Z,14.00
2023-04-18T11:03:39.651Z,14.30
2023-04-18T11:06:12.849Z,14.60
2023-04-18T11:08:41.122Z,14.50
2023-04-18T11:11:13.391Z,14.60
2023-04-18T11:14:15.090Z,14.60
2023-04-18T11:16:45.513Z,15.10
2023-04-18T11:19:25.129Z,15.40
2023-04-18T11:22:19.884Z,15.80
2023-04-18T11:24:48.225Z,16.30
2023-04-18T11:27:17.087Z,17.00
2023-04-18T11:29:44.054Z,17.00
2023-04-18T11:32:12.204Z,16.60
2023-04-18T11:34:39.186Z,16.60
2023-04-18T11:37:08.068Z,16.20
2023-04-18T11:39:43.192Z,15.90
2023-04-18T11:42:16.107Z,15.40
2023-04-18T11:44:50.416Z,15.10
2023-04-18T11:47:33.059Z,14.80
2023-04-18T11:50:10.328Z,14.80
2023-04-18T11:52:42.928Z,14.90
2023-04-18T11:55:21.425Z,15.50
2023-04-18T11:58:06.004Z,16.10
2023-04-18T12:00:37.570Z,16.20
2023-04-18T12:03:16.674Z,16.40
2023-04-18T12:05:44.193Z,17.10
2023-04-18T12:08:19.243Z,17.30
2023-04-18T12:10:48.193Z,17.20
2023-04-18T12:13:30.057Z,17.20
2023-04-18T12:16:02.710Z,17.50
2023-04-18T12:18:34.006Z,17.90
2023-04-18T12:21:05.876Z,17.80
2023-04-18T12:23:39.217Z,17.70
2023-04-18T12:26:21.065Z,17.50
2023-04-18T12:28:52.834Z,17.20
2023-04-18T12:31:22.423Z,17.20
2023-04-18T12:33:50.507Z,16.70
2023-04-18T12:36:17.353Z,16.50
2023-04-18T12:38:45.765Z,17.10
2023-04-18T12:41:15.664Z,17.60
2023-04-18T12:43:45.870Z,18.00
2023-04-18T12:46:13.020Z,18.30
2023-04-18T12:48:40.094Z,18.40
2023-04-18T12:51:09.245Z,18.60
2023-04-18T12:53:36.098Z,18.80
2023-04-18T12:56:07.720Z,19.00
2023-04-18T12:58:36.651Z,19.20
2023-04-18T13:01:05.046Z,19.50
2023-04-18T13:03:34.235Z,19.40
2023-04-18T13:06:05.829Z,19.50
2023-04-18T13:08:34.966Z,19.80
2023-04-18T13:11:03.914Z,20.40
2023-04-18T13:13:31.060Z,20.30
2023-04-18T13:16:26.442Z,20.20
2023-04-18T13:18:57.706Z,20.10
2023-04-18T13:21:38.700Z,20.10
2023-04-18T13:24:32.469Z,19.90
2023-04-18T13:27:01.318Z,19.50
2023-04-18T13:29:28.619Z,19.50
2023-04-18T13:31:56.611Z,19.80
2023-04-18T13:34:23.664Z,19.60
2023-04-18T13:36:51.804Z,19.00
2023-04-18T13:39:21.602Z,19.20
2023-04-18T13:41:50.348Z,19.50
2023-04-18T13:44:18.243Z,19.70
2023-04-18T13:46:52.429Z,19.80
2023-04-18T13:49:19.485Z,19.70
2023-04-18T13:51:47.309Z,19.80
2023-04-18T13:54:16.544Z,20.30
2023-04-18T13:56:57.916Z,20.00
2023-04-18T13:59:51.255Z,20.20
2023-04-18T14:02:19.569Z,20.40
2023-04-18T14:04:52.044Z,19.90
2023-04-18T14:07:20.268Z,19.70
2023-04-18T14:10:14.616Z,19.40
2023-04-18T14:12:44.604Z,19.20
2023-04-18T14:15:13.690Z,18.70
2023-04-18T14:17:41.808Z,18.70
2023-04-18T14:20:36.359Z,18.60
2023-04-18T14:23:04.571Z,18.60
2023-04-18T14:25:31.539Z,18.10
2023-04-18T14:28:09.734Z,17.40
2023-04-18T14:30:39.254Z,17.10
2023-04-18T14:33:08.550Z,17.10
2023-04-18T14:35:36.065Z,17.20
2023-04-18T14:38:04.108Z,17.20
2023-04-18T14:40:33.553Z,17.10
2023-04-18T14:45:48.550Z,17.20
2023-04-18T14:48:17.311Z,17.30
2023-04-18T14:50:56.077Z,17.20
2023-04-18T14:53:24.987Z,17.10
2023-04-18T14:55:52.837Z,16.80
2023-04-18T14:58:28.489Z,16.80
2023-04-18T15:00:56.654Z,16.80
2023-04-18T15:03:25.270Z,16.70
2023-04-18T15:05:53.965Z,16.70
2023-04-18T15:08:21.368Z,16.60
2023-04-18T15:10:49.550Z,16.50
2023-04-18T15:13:17.005Z,16.40
2023-04-18T15:15:51.137Z,16.40
2023-04-18T15:18:18.364Z,16.40
2023-04-18T15:20:45.366Z,16.10
2023-04-18T15:23:16.521Z,16.30
2023-04-18T15:25:49.622Z,16.50
2023-04-18T15:28:18.211Z,16.60
2023-04-18T15:30:47.645Z,16.50
2023-04-18T15:33:15.638Z,16.50
2023-04-18T15:35:45.145Z,16.30
2023-04-18T15:38:18.069Z,16.40
2023-04-18T15:40:59.396Z,16.30
2023-04-18T15:43:28.781Z,16.20
2023-04-18T15:46:00.647Z,16.20
2023-04-18T15:48:28.649Z,16.30
2023-04-18T15:50:55.777Z,16.40
2023-04-18T15:53:24.003Z,16.50
2023-04-18T15:55:56.349Z,16.40
2023-04-18T16:01:16.601Z,16.10
2023-04-18T16:03:46.337Z,16.10
2023-04-18T16:09:15.521Z,16.20
2023-04-18T16:12:51.777Z,16.30
2023-04-18T16:15:20.358Z,16.20
2023-04-18T16:17:49.805Z,16.20
2023-04-18T16:20:19.084Z,16.30
2023-04-18T16:22:48.257Z,16.40
2023-04-18T16:28:08.730Z,15.90
2023-04-18T16:30:40.998Z,15.90
2023-04-18T16:33:17.479Z,15.90
2023-04-18T16:35:46.258Z,16.00
2023-04-18T16:41:16.134Z,16.30
2023-04-18T16:43:43.561Z,16.10
2023-04-18T16:46:13.950Z,16.10
2023-04-18T16:48:41.796Z,16.10
2023-04-18T16:51:08.814Z,16.10
2023-04-18T16:53:38.014Z,15.90
2023-04-18T16:56:05.611Z,15.90
2023-04-18T17:01:17.812Z,15.80
2023-04-18T17:03:55.515Z,15.60
2023-04-18T17:06:25.019Z,15.50
2023-04-18T17:08:55.313Z,15.40
2023-04-18T17:11:22.308Z,15.40
2023-04-18T17:13:51.562Z,15.40
2023-04-18T17:16:23.172Z,15.40
2023-04-18T17:18:53.216Z,15.40
2023-04-18T17:21:20.758Z,15.40
2023-04-18T17:23:48.653Z,15.40
2023-04-18T17:26:15.975Z,15.30
2023-04-18T17:28:51.858Z,15.30
2023-04-18T17:31:20.066Z,15.30
2023-04-18T17:33:49.228Z,15.20
2023-04-18T17:36:20.658Z,15.20
2023-04-18T17:39:00.497Z,15.20
2023-04-18T17:44:18.638Z,15.20
2023-04-18T17:46:48.784Z,15.20
2023-04-18T17:49:17.069Z,15.20
2023-04-18T17:51:43.924Z,15.10
2023-04-18T17:54:13.424Z,15.00
2023-04-18T17:56:40.396Z,15.00
2023-04-18T17:59:09.837Z,15.00
2023-04-18T18:01:38.802Z,14.90
2023-04-18T18:04:06.627Z,14.80
2023-04-18T18:06:39.909Z,14.80
2023-04-18T18:09:07.304Z,14.80
2023-04-18T18:11:34.396Z,14.70
2023-04-18T18:14:02.640Z,14.60
2023-04-18T18:16:30.947Z,14.60
2023-04-18T18:18:58.618Z,14.60
2023-04-18T18:21:26.176Z,14.50
2023-04-18T18:23:56.159Z,14.50
2023-04-18T18:26:23.079Z,14.40
2023-04-18T18:28:51.722Z,14.40
2023-04-18T18:31:22.794Z,14.40
2023-04-18T18:34:15.867Z,14.50
2023-04-18T18:36:46.500Z,14.40
2023-04-18T18:39:16.533Z,14.30
2023-04-18T18:41:44.083Z,14.20
2023-04-18T18:44:11.741Z,14.20
2023-04-18T18:46:38.820Z,14.20
2023-04-18T18:49:08.113Z,14.10
2023-04-18T18:51:37.050Z,14.00
2023-04-18T18:54:05.803Z,14.10
2023-04-18T18:56:33.961Z,14.00
2023-04-18T18:59:02.234Z,13.90
2023-04-18T19:01:30.261Z,13.90
2023-04-18T19:03:58.036Z,14.00
2023-04-18T19:06:28.252Z,14.00
2023-04-18T19:08:55.118Z,14.00
2023-04-18T19:11:24.759Z,14.00
2023-04-18T19:13:53.991Z,13.90
2023-04-18T19:16:21.317Z,13.70
2023-04-18T19:18:50.523Z,13.70
2023-04-18T19:21:20.555Z,13.80
2023-04-18T19:23:49.655Z,13.80
2023-04-18T19:26:17.321Z,13.70
2023-04-18T19:28:47.055Z,13.70
2023-04-18T19:31:15.140Z,13.50
2023-04-18T19:33:42.090Z,13.60
2023-04-18T19:36:09.980Z,13.50
2023-04-18T19:38:40.849Z,13.40
2023-04-18T19:41:07.681Z,13.30
2023-04-18T19:43:37.962Z,13.30
2023-04-18T19:46:05.028Z,13.40
2023-04-18T19:48:38.088Z,13.40
2023-04-18T19:51:17.256Z,13.30
2023-04-18T19:53:51.312Z,13.40
2023-04-18T19:56:25.455Z,13.30
2023-04-18T19:59:02.596Z,13.30
2023-04-18T20:01:32.508Z,13.10
2023-04-18T20:04:38.927Z,13.20
2023-04-18T20:07:08.212Z,13.20
2023-04-18T20:09:35.413Z,13.10
2023-04-18T20:12:02.631Z,13.00
2023-04-18T20:14:31.596Z,13.00
2023-04-18T20:17:00.893Z,13.00
2023-04-18T20:19:29.704Z,13.00
2023-04-18T20:21:56.988Z,13.00
2023-04-18T20:24:28.061Z,12.90
2023-04-18T20:26:59.142Z,13.00
2023-04-18T20:29:27.857Z,12.80
2023-04-18T20:31:56.279Z,12.80
2023-04-18T20:34:25.098Z,12.70
2023-04-18T20:36:52.832Z,12.70
2023-04-18T20:39:20.020Z,12.80
2023-04-18T20:41:53.761Z,12.70
2023-04-18T20:44:22.300Z,12.70
2023-04-18T20:46:49.156Z,12.70
2023-04-18T20:49:16.432Z,12.70
2023-04-18T20:51:43.474Z,12.80
2023-04-18T20:54:11.376Z,12.70
2023-04-18T20:56:38.225Z,12.70
2023-04-18T20:59:05.211Z,12.70
2023-04-18T21:01:36.737Z,12.80
2023-04-18T21:04:05.389Z,12.60
2023-04-18T21:06:32.874Z,12.60
2023-04-18T21:08:59.940Z,12.60
2023-04-18T21:11:26.791Z,12.50
2023-04-18T21:13:54.763Z,12.60
2023-04-18T21:16:23.864Z,12.50
2023-04-18T21:18:50.907Z,12.40
2023-04-18T21:21:17.937Z,12.30
2023-04-18T21:23:44.960Z,12.30
2023-04-18T21:26:13.308Z,12.30
2023-04-18T21:28:53.813Z,12.30
2023-04-18T21:31:22.080Z,12.10
2023-04-18T21:33:52.622Z,12.10
2023-04-18T21:36:20.177Z,12.10
2023-04-18T21:38:47.100Z,12.20
2023-04-18T21:41:15.964Z,12.10
2023-04-18T21:43:45.533Z,12.00
2023-04-18T21:46:14.074Z,12.10
2023-04-18T21:48:42.672Z,12.00
2023-04-18T21:51:10.794Z,12.10
2023-04-18T21:53:39.561Z,12.10
2023-04-18T21:56:07.406Z,12.00
2023-04-18T21:58:37.037Z,11.90
2023-04-18T22:01:03.970Z,11.90
2023-04-18T22:03:34.096Z,11.90
2023-04-18T22:06:03.602Z,11.90
2023-04-18T22:08:31.326Z,12.00
2023-04-18T22:10:59.420Z,12.00
2023-04-18T22:13:32.803Z,12.00
2023-04-18T22:16:03.882Z,11.90
2023-04-18T22:18:33.807Z,12.00
2023-04-18T22:21:04.572Z,11.90
2023-04-18T22:23:36.291Z,11.90
2023-04-18T22:26:03.969Z,12.00
2023-04-18T22:28:30.785Z,11.90
2023-04-18T22:31:02.916Z,11.90
2023-04-18T22:33:30.018Z,11.80
2023-04-18T22:35:59.409Z,11.80
2023-04-18T22:38:26.368Z,11.70
2023-04-18T22:40:53.254Z,11.80
2023-04-18T22:43:23.436Z,11.70
2023-04-18T22:45:52.752Z,11.70
2023-04-18T22:48:20.688Z,11.70
2023-04-18T22:50:47.787Z,11.60
2023-04-18T22:53:15.442Z,11.70
2023-04-18T22:59:00.200Z,11.60
2023-04-18T23:01:27.206Z,11.40
2023-04-18T23:03:56.796Z,11.50
2023-04-18T23:06:24.937Z,11.50
2023-04-18T23:08:51.763Z,11.60
2023-04-18T23:11:18.589Z,11.50
2023-04-18T23:13:45.804Z,11.60
2023-04-18T23:16:12.867Z,11.60
2023-04-18T23:18:41.036Z,11.50
2023-04-18T23:21:08.252Z,11.60
2023-04-18T23:23:37.485Z,11.50
2023-04-18T23:26:13.613Z,11.40
2023-04-18T23:28:42.246Z,11.40
2023-04-18T23:31:09.419Z,11.30
2023-04-18T23:33:36.513Z,11.40
2023-04-18T23:36:04.489Z,11.30
2023-04-18T23:38:37.165Z,11.30
2023-04-18T23:41:04.228Z,11.30
2023-04-18T23:43:31.206Z,11.30
2023-04-18T23:45:59.532Z,11.30
2023-04-18T23:48:35.758Z,11.40
2023-04-18T23:51:03.179Z,11.40
2023-04-18T23:53:31.242Z,11.30
2023-04-18T23:56:02.615Z,11.30
2023-04-18T23:58:31.946Z,11.20
